Time;durP1;ratioP1;P1;durP2;ratioP2;P2;SDS_P1;SDS_P2;PMS_P1;PMS_P2;Temp;Humidity;BMP_temperature;BMP_pressure;BME280_temperature;BME280_humidity;BME280_pressure;Samples;Min_cycle;Max_cycle;Signal;HPM_P1;HPM_P2
2022/10/30 00:00:15;;;;;;;5.85;3.13;;;;;;;29.02;57.73;100586.00;5036644;28;66697;-36
2022/10/30 00:02:47;;;;;;;6.07;4.57;;;;;;;28.91;58.03;100569.41;5040406;28;69522;-36
2022/10/30 00:05:47;;;;;;;15.18;6.72;;;;;;;29.12;59.53;100613.41;5040906;28;66239;-36
2022/10/30 00:08:24;;;;;;;16.95;8.60;;;;;;;28.52;61.38;100530.72;5047058;28;69140;-35
2022/10/30 00:10:55;;;;;;;15.82;8.60;;;;;;;29.01;61.70;100622.16;5043346;28;66268;-35
2022/10/30 00:13:28;;;;;;;17.02;8.20;;;;;;;28.85;62.54;100616.16;5043337;28;71583;-35
2022/10/30 00:16:02;;;;;;;9.07;6.97;;;;;;;28.88;62.92;100634.63;5046785;28;66181;-35
2022/10/30 00:18:36;;;;;;;12.02;7.32;;;;;;;28.74;63.39;100633.84;5045902;28;69509;-35
2022/10/30 00:21:13;;;;;;;24.40;9.52;;;;;;;28.39;63.49;100571.25;5046666;28;66807;-37
2022/10/30 00:23:48;;;;;;;19.85;9.38;;;;;;;28.85;63.67;100645.88;5042370;28;69709;-37
2022/10/30 00:26:22;;;;;;;27.17;9.10;;;;;;;28.39;64.47;100582.03;5054486;28;66100;-36
2022/10/30 00:28:55;;;;;;;21.95;8.68;;;;;;;28.52;64.17;100592.78;5049097;28;70717;-36
2022/10/30 00:31:26;;;;;;;16.65;8.38;;;;;;;28.90;65.22;100637.97;5046504;28;66508;-35
2022/10/30 00:33:57;;;;;;;24.48;8.18;;;;;;;29.11;64.33;100660.34;5047974;28;70807;-36
2022/10/30 00:36:28;;;;;;;;;;;;;;;28.88;65.85;100667.03;5035675;28;66301;-35
2022/10/30 00:39:00;;;;;;;12.60;8.27;;;;;;;29.13;65.22;100677.19;5036235;28;70398;-37
2022/10/30 00:41:31;;;;;;;16.25;8.20;;;;;;;29.19;65.31;100684.41;5037390;28;66349;-36
2022/10/30 00:44:37;;;;;;;23.33;8.63;;;;;;;29.16;66.11;100690.25;5039724;28;70758;-35
2022/10/30 00:47:20;;;;;;;10.32;8.02;;;;;;;28.42;65.44;100562.75;5036321;28;65729;-37
2022/10/30 00:50:31;;;;;;;12.32;8.10;;;;;;;29.23;66.29;100703.75;5037873;28;69544;-37
2022/10/30 00:53:08;;;;;;;16.17;7.68;;;;;;;29.23;65.35;100680.28;5056942;28;67180;-36
2022/10/30 00:56:02;;;;;;;9.32;6.88;;;;;;;29.28;65.96;100704.78;5037806;28;69968;-45
2022/10/30 00:58:39;;;;;;;14.90;7.53;;;;;;;29.26;66.14;100689.81;5038780;28;65793;-35
2022/10/30 01:01:21;;;;;;;9.10;6.60;;;;;;;28.90;66.27;100631.75;5039544;28;69971;-35
2022/10/30 01:03:57;;;;;;;14.68;7.45;;;;;;;29.36;65.86;100707.25;5039552;28;66355;-37
2022/10/30 01:06:35;;;;;;;19.58;7.30;;;;;;;29.45;65.39;100725.88;5040638;28;71038;-34
2022/10/30 01:09:06;;;;;;;16.38;9.57;;;;;;;29.47;65.32;100723.81;5040517;28;65800;-36
2022/10/30 01:11:44;;;;;;;13.38;9.60;;;;;;;29.48;66.06;100725.47;5045605;28;69868;-36
2022/10/30 01:14:19;;;;;;;17.77;10.10;;;;;;;29.04;66.23;100664.97;5041771;28;66226;-35
2022/10/30 01:17:11;;;;;;;14.27;10.25;;;;;;;29.40;66.40;100740.88;5054548;28;70187;-36
2022/10/30 01:19:56;;;;;;;17.40;11.02;;;;;;;29.46;67.32;100738.38;5024910;28;66086;-36
2022/10/30 01:22:58;;;;;;;16.25;11.10;;;;;;;29.48;67.25;100739.00;5038834;28;70534;-35
2022/10/30 01:25:54;;;;;;;16.30;11.85;;;;;;;29.44;67.80;100737.75;5037811;28;66023;-35
2022/10/30 01:29:09;;;;;;;21.00;11.07;;;;;;;29.43;68.48;100738.81;5036878;28;70500;-37
2022/10/30 01:31:41;;;;;;;20.50;11.68;;;;;;;29.57;68.13;100737.69;5056670;28;66850;-37
2022/10/30 01:34:28;;;;;;;21.73;12.00;;;;;;;28.74;68.05;100608.72;5050006;28;69713;-36
2022/10/30 01:37:20;;;;;;;22.27;12.45;;;;;;;29.49;67.89;100748.75;5042226;28;65771;-35
2022/10/30 01:39:52;;;;;;;21.02;12.75;;;;;;;29.55;67.88;100764.09;5040360;28;70301;-35
2022/10/30 01:42:47;;;;;;;48.85;13.95;;;;;;;29.51;68.13;100757.47;5039219;28;66612;-36
2022/10/30 01:45:40;;;;;;;45.53;13.75;;;;;;;29.60;68.09;100772.41;5038005;28;70181;-36
2022/10/30 01:48:30;;;;;;;53.90;17.23;;;;;;;29.64;67.83;100765.53;5051387;28;66492;-37
2022/10/30 01:51:19;;;;;;;57.38;15.93;;;;;;;29.74;65.57;100768.63;5042493;28;70569;-37
2022/10/30 01:54:25;;;;;;;47.22;13.02;;;;;;;29.71;63.75;100768.22;5038073;28;66236;-36
2022/10/30 01:57:02;;;;;;;19.10;11.13;;;;;;;29.84;62.54;100766.28;5045692;28;69821;-37
2022/10/30 02:00:05;;;;;;;19.85;12.43;;;;;;;29.81;61.90;100774.84;5045438;28;66141;-37
2022/10/30 02:02:42;;;;;;;16.33;10.85;;;;;;;29.91;60.96;100768.13;5039516;28;69841;-37
2022/10/30 02:05:27;;;;;;;30.83;13.13;;;;;;;29.61;60.28;100720.00;5034416;28;65721;-36
2022/10/30 02:07:58;;;;;;;19.52;10.27;;;;;;;29.88;60.22;100757.75;5039617;28;70155;-36
2022/10/30 02:10:30;;;;;;;20.90;9.93;;;;;;;29.90;60.53;100751.06;5040406;28;65804;-36
2022/10/30 02:13:03;;;;;;;20.40;9.18;;;;;;;30.06;60.61;100776.75;5039543;28;70233;-37
2022/10/30 02:15:38;;;;;;;16.77;10.95;;;;;;;30.07;60.08;100762.22;5039687;28;66613;-36
2022/10/30 02:18:11;;;;;;;26.10;11.77;;;;;;;30.08;60.03;100752.22;5037133;28;70417;-36
2022/10/30 02:20:43;;;;;;;26.02;11.90;;;;;;;30.13;59.73;100755.91;5025128;28;65910;-36
2022/10/30 02:23:17;;;;;;;;;;;;;;;29.77;60.84;100745.75;5041126;28;70587;-37
2022/10/30 02:25:51;;;;;;;46.40;13.50;;;;;;;30.09;60.45;100733.06;5036195;28;66398;-36
2022/10/30 02:28:22;;;;;;;55.40;16.13;;;;;;;30.23;59.86;100739.25;5041698;28;70352;-36
2022/10/30 02:30:53;;;;;;;21.97;11.27;;;;;;;29.75;59.91;100650.50;5044123;28;65445;-38
2022/10/30 02:33:25;;;;;;;34.75;11.98;;;;;;;30.26;59.17;100734.22;5045862;28;70578;-36
2022/10/30 02:35:56;;;;;;;37.80;12.35;;;;;;;30.11;58.97;100709.31;5038447;28;66179;-37
2022/10/30 02:38:27;;;;;;;28.92;9.18;;;;;;;30.34;59.18;100729.56;5040173;28;70192;-37
2022/10/30 02:40:58;;;;;;;11.97;8.00;;;;;;;30.33;58.50;100727.94;5039086;28;65379;-36
2022/10/30 02:43:30;;;;;;;28.98;10.23;;;;;;;30.41;58.83;100724.94;5036833;28;69590;-38
2022/10/30 02:46:01;;;;;;;15.43;7.55;;;;;;;30.38;58.48;100709.97;5038428;28;67240;-38
2022/10/30 02:48:33;;;;;;;11.63;7.72;;;;;;;30.47;59.02;100724.06;5032053;28;70216;-37
2022/10/30 02:51:05;;;;;;;32.05;8.88;;;;;;;30.53;58.15;100716.94;5050484;28;65869;-37
2022/10/30 02:53:38;;;;;;;34.63;11.70;;;;;;;30.57;58.19;100716.28;5037386;28;69692;-37
2022/10/30 02:56:13;;;;;;;32.45;9.68;;;;;;;30.57;58.17;100713.56;5050271;28;66714;-36
2022/10/30 02:58:44;;;;;;;25.77;10.63;;;;;;;30.61;58.25;100714.75;5043242;28;70091;-37
2022/10/30 03:01:18;;;;;;;16.48;7.78;;;;;;;30.23;57.60;100647.25;5048756;28;66108;-38
2022/10/30 03:03:51;;;;;;;12.10;6.03;;;;;;;30.61;57.67;100703.94;5038323;28;70450;-37
2022/10/30 03:06:27;;;;;;;11.43;5.82;;;;;;;30.69;57.25;100706.34;5046085;28;67152;-37
2022/10/30 03:09:07;;;;;;;14.85;8.30;;;;;;;30.70;57.04;100702.63;5044931;28;70144;-36
2022/10/30 03:11:43;;;;;;;15.15;8.35;;;;;;;30.77;57.67;100712.53;5040749;28;65456;-37
2022/10/30 03:17:08;;;;;;;11.75;7.22;;;;;;;30.82;57.13;100704.63;5035740;28;65181;-39
2022/10/30 03:19:40;;;;;;;17.98;7.25;;;;;;;30.70;57.72;100702.63;5038718;28;68996;-37
2022/10/30 03:22:11;;;;;;;10.93;6.97;;;;;;;30.73;57.81;100701.34;5045235;28;65531;-37
2022/10/30 03:24:43;;;;;;;20.90;6.32;;;;;;;30.64;58.86;100692.66;5045970;28;70387;-37
2022/10/30 03:27:16;;;;;;;15.68;8.52;;;;;;;30.67;58.38;100694.09;5046991;28;64950;-37
2022/10/30 03:29:50;;;;;;;12.80;6.95;;;;;;;30.75;57.17;100692.97;5058986;28;71620;-36
2022/10/30 03:32:32;;;;;;;;;;;;;;;30.55;56.61;100698.59;5011955;28;64438;-38
2022/10/30 03:35:34;;;;;;;14.75;7.00;;;;;;;30.68;56.08;100691.19;5041757;28;70168;-37
2022/10/30 03:38:19;;;;;;;14.85;6.10;;;;;;;30.79;55.98;100689.59;5041305;28;66697;-37
2022/10/30 03:40:53;;;;;;;9.93;5.37;;;;;;;30.82;56.98;100693.78;5040845;28;70078;-38
2022/10/30 03:43:28;;;;;;;7.30;4.95;;;;;;;30.84;56.18;100694.38;5025407;28;66627;-37
2022/10/30 03:45:59;;;;;;;12.70;5.32;;;;;;;30.73;55.87;100669.69;5040976;28;70485;-38
2022/10/30 03:48:30;;;;;;;20.08;6.28;;;;;;;30.93;55.75;100684.91;5040217;28;66213;-38
2022/10/30 03:51:02;;;;;;;9.68;5.78;;;;;;;30.94;57.11;100681.13;5041735;28;70156;-38
2022/10/30 03:53:33;;;;;;;11.27;5.78;;;;;;;30.89;58.13;100672.84;5040528;28;64278;-37
2022/10/30 03:56:36;;;;;;;26.77;5.93;;;;;;;30.88;58.48;100682.03;5040803;28;69990;-37
2022/10/30 03:59:09;;;;;;;24.67;5.93;;;;;;;30.81;59.86;100675.84;5055263;28;66685;-37
2022/10/30 04:02:02;;;;;;;13.82;5.80;;;;;;;30.88;59.60;100663.09;5040248;28;70550;-37
2022/10/30 04:04:38;;;;;;;14.40;6.07;;;;;;;30.86;60.28;100659.78;5054538;28;65608;-36
2022/10/30 04:07:15;;;;;;;10.70;5.88;;;;;;;30.80;60.55;100655.25;5048232;28;70367;-36
2022/10/30 04:09:48;;;;;;;13.85;5.80;;;;;;;30.82;61.08;100658.59;5038884;28;66780;-37
2022/10/30 04:12:19;;;;;;;9.50;5.55;;;;;;;30.85;60.69;100656.25;5039284;28;69806;-37
2022/10/30 04:14:53;;;;;;;15.05;6.20;;;;;;;30.80;60.83;100641.72;5042989;28;66303;-37
2022/10/30 04:17:53;;;;;;;9.43;5.93;;;;;;;30.75;60.97;100649.66;5050884;28;69840;-37
2022/10/30 04:20:29;;;;;;;10.65;5.97;;;;;;;30.90;60.88;100656.41;5037293;28;65494;-37
2022/10/30 04:23:03;;;;;;;7.15;5.55;;;;;;;30.65;60.88;100623.94;5037417;28;70448;-37
2022/10/30 04:25:34;;;;;;;8.13;5.93;;;;;;;30.79;60.86;100634.63;5021175;28;65291;-37
2022/10/30 04:28:09;;;;;;;10.82;5.57;;;;;;;30.79;60.89;100623.81;5035651;28;69683;-37
2022/10/30 04:31:14;;;;;;;5.72;5.13;;;;;;;30.86;60.81;100646.22;5037071;28;66601;-36
2022/10/30 04:33:44;;;;;;;;;;;;;;;30.60;61.24;100642.72;5023768;28;69904;-36
2022/10/30 04:36:17;;;;;;;7.35;5.35;;;;;;;30.85;60.68;100644.59;5050850;28;66306;-37
2022/10/30 04:39:20;;;;;;;9.45;5.53;;;;;;;30.87;61.27;100642.44;5048252;28;70771;-37
2022/10/30 04:45:50;;;;;;;6.80;4.72;;;;;;;30.86;61.58;100635.41;5018323;28;70269;-37
2022/10/30 04:48:21;;;;;;;10.05;5.57;;;;;;;30.90;61.13;100629.31;5039879;28;65739;-37
2022/10/30 04:51:13;;;;;;;6.47;4.43;;;;;;;30.83;61.44;100619.59;5048425;28;70517;-37
2022/10/30 04:54:04;;;;;;;15.85;6.13;;;;;;;30.92;59.83;100615.53;5039036;28;66120;-37
2022/10/30 04:56:56;;;;;;;15.30;5.80;;;;;;;31.03;58.22;100614.75;5039695;28;70471;-37
2022/10/30 04:59:33;;;;;;;11.55;4.50;;;;;;;31.11;57.08;100606.31;5034859;28;65827;-37
2022/10/30 05:02:04;;;;;;;11.45;4.05;;;;;;;31.06;58.41;100598.03;5047182;28;70980;-38
2022/10/30 05:04:36;;;;;;;10.52;4.53;;;;;;;30.97;58.34;100599.44;5046047;28;66414;-37
2022/10/30 05:07:08;;;;;;;7.57;5.10;;;;;;;30.99;59.50;100593.78;5040743;28;69817;-37
2022/10/30 05:09:39;;;;;;;10.60;5.20;;;;;;;30.84;58.68;100588.75;5041145;28;68097;-36
2022/10/30 05:12:33;;;;;;;5.95;4.18;;;;;;;30.70;57.44;100578.06;5049387;28;69978;-36
2022/10/30 05:15:21;;;;;;;12.50;4.90;;;;;;;30.56;57.34;100565.72;5056902;28;65481;-37
2022/10/30 05:17:52;;;;;;;23.00;4.30;;;;;;;30.68;57.25;100585.59;5008025;28;69215;-38
2022/10/30 05:20:30;;;;;;;18.20;4.22;;;;;;;30.60;56.76;100566.13;5044034;28;66089;-37
2022/10/30 05:26:18;;;;;;;15.52;3.65;;;;;;;30.56;56.19;100560.31;5004901;28;65589;-36
2022/10/30 05:28:49;;;;;;;11.60;3.83;;;;;;;30.54;56.03;100556.19;5010372;28;69912;-38
2022/10/30 05:31:33;;;;;;;13.43;4.25;;;;;;;30.48;55.56;100549.81;5020953;28;66115;-37
2022/10/30 05:34:45;;;;;;;10.25;3.75;;;;;;;30.48;54.88;100541.69;5042225;28;70277;-37
2022/10/30 05:37:30;;;;;;;6.75;3.85;;;;;;;30.44;54.13;100545.88;5020855;28;66153;-37
2022/10/30 05:40:04;;;;;;;6.03;3.22;;;;;;;30.40;53.96;100528.44;5029957;28;69293;-37
2022/10/30 05:42:45;;;;;;;11.18;3.28;;;;;;;29.99;52.79;100468.50;5029225;28;65677;-37
2022/10/30 05:45:17;;;;;;;6.18;3.63;;;;;;;30.35;52.96;100520.19;5015097;28;69843;-37
2022/10/30 05:48:03;;;;;;;6.50;3.03;;;;;;;30.35;52.49;100517.47;5005277;28;64406;-37
2022/10/30 05:50:41;;;;;;;6.15;3.63;;;;;;;30.41;51.84;100524.69;5014451;28;70030;-37
2022/10/30 05:53:56;;;;;;;4.30;2.70;;;;;;;30.32;51.41;100521.44;5031654;28;66476;-37
2022/10/30 05:56:30;;;;;;;6.85;2.65;;;;;;;30.35;51.08;100509.34;5037822;28;69309;-36
2022/10/30 05:59:04;;;;;;;3.90;2.73;;;;;;;30.38;51.11;100514.31;5039780;28;65560;-37
2022/10/30 06:05:55;;;;;;;3.78;2.45;;;;;;;30.24;49.98;100492.81;5019854;28;65741;-36
2022/10/30 06:08:26;;;;;;;5.30;2.35;;;;;;;30.21;49.96;100466.19;4985191;28;70483;-37
2022/10/30 06:11:05;;;;;;;3.42;2.78;;;;;;;30.34;50.07;100480.63;4996040;28;65571;-37
2022/10/30 06:13:41;;;;;;;3.70;3.08;;;;;;;30.40;49.82;100479.75;5002023;28;68649;-36
2022/10/30 06:16:18;;;;;;;2.97;2.30;;;;;;;30.39;50.04;100469.94;4997315;28;67385;-36
2022/10/30 06:19:15;;;;;;;3.25;2.78;;;;;;;30.38;49.87;100466.41;5023784;28;70224;-37
2022/10/30 06:21:50;;;;;;;7.00;3.10;;;;;;;30.40;49.57;100477.03;5041206;28;65764;-36
2022/10/30 06:24:40;;;;;;;3.42;2.65;;;;;;;30.41;49.06;100465.16;5043794;28;69358;-36
2022/10/30 06:28:03;;;;;;;2.42;2.22;;;;;;;30.30;48.81;100461.31;5042251;28;65298;-36
2022/10/30 06:30:34;;;;;;;2.55;2.20;;;;;;;30.37;48.50;100453.09;5022034;28;70354;-37
2022/10/30 06:33:33;;;;;;;7.72;2.65;;;;;;;30.37;48.68;100450.41;5032307;28;66986;-37
2022/10/30 06:36:04;;;;;;;3.65;2.30;;;;;;;30.34;48.10;100443.59;5039230;28;70614;-36
2022/10/30 06:38:38;;;;;;;2.65;2.42;;;;;;;30.27;47.91;100427.41;5040050;28;66273;-35
2022/10/30 06:41:10;;;;;;;;;;;;;;;30.15;49.71;100445.44;5049923;28;70097;-35
2022/10/30 06:43:58;;;;;;;7.75;2.78;;;;;;;30.18;49.30;100412.53;5030900;28;67260;-35
2022/10/30 06:47:21;;;;;;;4.93;2.40;;;;;;;30.41;48.52;100448.91;5052568;28;70545;-37
2022/10/30 06:49:32;;;;;;;5.47;2.45;;;;;;;30.39;48.42;100435.59;5049349;28;66396;-36
2022/10/30 06:52:22;;;;;;;4.32;2.88;;;;;;;30.39;47.79;100434.78;5048805;28;69986;-36
2022/10/30 06:58:22;;;;;;;2.50;2.30;;;;;;;30.41;47.64;100427.25;5046188;28;69448;-36
2022/10/30 07:01:00;;;;;;;3.42;2.50;;;;;;;29.64;47.10;100289.81;5045324;28;66365;-36
2022/10/30 07:03:54;;;;;;;2.80;2.17;;;;;;;30.33;47.32;100414.03;5039926;28;70157;-37
2022/10/30 07:06:31;;;;;;;3.58;2.75;;;;;;;30.41;47.30;100421.84;5036437;28;66605;-35
2022/10/30 07:09:03;;;;;;;6.15;2.80;;;;;;;30.36;47.58;100409.00;5041587;28;70090;-37
2022/10/30 07:11:34;;;;;;;3.30;2.70;;;;;;;30.41;46.66;100419.13;5049200;28;66403;-37
2022/10/30 07:14:19;;;;;;;3.88;2.60;;;;;;;30.40;46.36;100410.19;5035719;28;70292;-37
2022/10/30 07:17:06;;;;;;;3.53;2.45;;;;;;;30.39;46.35;100405.81;5056839;28;65930;-37
2022/10/30 07:19:56;;;;;;;2.92;2.25;;;;;;;30.39;46.33;100413.94;5036651;28;70350;-36
2022/10/30 07:22:48;;;;;;;6.32;2.50;;;;;;;30.37;46.56;100412.50;5053877;28;66460;-37
2022/10/30 07:25:19;;;;;;;2.60;2.28;;;;;;;30.46;46.58;100403.03;5026493;28;67918;-37
2022/10/30 07:28:23;;;;;;;5.55;2.65;;;;;;;30.44;46.03;100405.16;5035156;28;65866;-38
2022/10/30 07:31:15;;;;;;;2.70;2.45;;;;;;;30.42;46.30;100407.25;5040942;28;70607;-37
2022/10/30 07:34:29;;;;;;;3.28;2.53;;;;;;;30.51;46.83;100405.91;5051686;28;66228;-36
2022/10/30 07:37:37;;;;;;;4.30;2.78;;;;;;;30.39;45.89;100402.28;5047684;28;70232;-36
2022/10/30 07:40:30;;;;;;;2.60;2.40;;;;;;;30.47;45.91;100399.28;5042059;28;66566;-36
2022/10/30 07:43:18;;;;;;;3.83;2.63;;;;;;;30.39;45.60;100380.66;5033322;28;69789;-37
2022/10/30 07:46:16;;;;;;;3.83;2.72;;;;;;;30.50;45.94;100393.41;5027535;28;65046;-36
2022/10/30 07:49:05;;;;;;;9.95;2.78;;;;;;;30.38;45.68;100384.41;5039409;28;69764;-37
2022/10/30 07:51:43;;;;;;;9.10;2.47;;;;;;;30.49;46.50;100398.00;5045466;28;65638;-36
2022/10/30 07:54:14;;;;;;;10.27;3.58;;;;;;;30.45;48.21;100385.13;5039442;28;69804;-36
2022/10/30 07:57:03;;;;;;;27.23;4.28;;;;;;;30.58;50.29;100397.66;5038992;28;66913;-36
2022/10/30 07:59:54;;;;;;;10.25;4.47;;;;;;;30.78;51.56;100389.25;5046813;28;69731;-39
2022/10/30 08:03:00;;;;;;;20.80;4.65;;;;;;;30.86;51.88;100392.47;5039938;28;66433;-35
2022/10/30 08:05:59;;;;;;;11.93;4.28;;;;;;;30.94;51.85;100383.22;5038495;28;70390;-36
2022/10/30 08:08:37;;;;;;;8.70;3.92;;;;;;;31.03;51.78;100381.81;5039031;28;65723;-36
2022/10/30 08:11:46;;;;;;;10.65;3.80;;;;;;;31.02;52.16;100382.88;5037829;28;70006;-36
2022/10/30 08:18:05;;;;;;;8.82;3.97;;;;;;;31.22;52.02;100373.59;5023572;28;70151;-36
2022/10/30 08:20:39;;;;;;;13.70;3.67;;;;;;;31.25;51.74;100365.81;5015986;28;65775;-36
2022/10/30 08:23:12;;;;;;;9.05;3.70;;;;;;;31.28;52.44;100359.09;5020212;28;70066;-36
2022/10/30 08:25:43;;;;;;;8.23;4.10;;;;;;;31.35;52.26;100360.63;5037345;28;66415;-36
2022/10/30 08:28:14;;;;;;;5.20;3.80;;;;;;;31.42;51.99;100360.53;5037235;28;69072;-36
2022/10/30 08:30:46;;;;;;;4.82;3.45;;;;;;;31.46;52.61;100366.31;5046579;28;65905;-36
2022/10/30 08:33:51;;;;;;;7.32;3.75;;;;;;;31.51;52.24;100361.00;5026705;28;69443;-36
2022/10/30 08:36:38;;;;;;;8.13;4.15;;;;;;;31.53;52.34;100354.28;5038241;28;66454;-36
2022/10/30 08:39:18;;;;;;;6.63;3.88;;;;;;;31.65;52.38;100361.56;5051185;28;70460;-35
2022/10/30 08:41:59;;;;;;;7.00;4.40;;;;;;;31.69;52.21;100357.34;5037137;28;66541;-36
2022/10/30 08:44:36;;;;;;;16.90;4.45;;;;;;;31.74;52.17;100365.59;5045877;28;70226;-36
2022/10/30 08:47:25;;;;;;;6.65;3.83;;;;;;;31.84;52.39;100365.78;5054980;28;66414;-36
2022/10/30 08:50:09;;;;;;;4.30;3.80;;;;;;;31.71;52.85;100360.63;5021538;28;70154;-37
2022/10/30 08:52:40;;;;;;;11.82;5.30;;;;;;;31.91;52.84;100365.66;5023596;28;65204;-37
2022/10/30 08:55:11;;;;;;;14.68;5.22;;;;;;;32.11;52.55;100373.41;5047986;28;70901;-37
2022/10/30 08:57:42;;;;;;;18.30;5.77;;;;;;;32.21;53.04;100377.16;5046971;28;64760;-37
2022/10/30 09:00:13;;;;;;;18.20;5.77;;;;;;;32.30;53.13;100377.59;5040474;28;71037;-36
2022/10/30 09:03:02;;;;;;;10.02;6.18;;;;;;;32.39;53.24;100381.56;5041981;28;66249;-38
2022/10/30 09:05:51;;;;;;;9.55;5.35;;;;;;;32.44;53.02;100380.84;5037945;28;70256;-36
2022/10/30 09:08:29;;;;;;;24.27;6.43;;;;;;;32.51;53.04;100375.28;5046002;28;65795;-35
2022/10/30 09:11:08;;;;;;;17.02;6.65;;;;;;;32.59;52.97;100385.75;5042871;28;70614;-36
2022/10/30 09:13:39;;;;;;;23.90;7.47;;;;;;;32.53;53.00;100373.16;5043366;28;67230;-38
2022/10/30 09:16:10;;;;;;;22.50;7.23;;;;;;;32.66;52.83;100391.88;5039451;28;68877;-37
2022/10/30 09:18:41;;;;;;;15.63;6.85;;;;;;;32.69;52.98;100394.09;5042450;28;66212;-36
2022/10/30 09:21:12;;;;;;;15.95;7.30;;;;;;;32.72;52.82;100399.03;5041202;28;69313;-37
2022/10/30 09:23:51;;;;;;;15.35;7.28;;;;;;;32.76;53.36;100410.22;5043528;28;66357;-37
2022/10/30 09:26:37;;;;;;;14.38;6.65;;;;;;;32.80;52.95;100411.41;5040462;28;69999;-36
2022/10/30 09:29:29;;;;;;;22.08;7.70;;;;;;;32.84;52.80;100413.38;5047042;28;66303;-37
2022/10/30 09:32:09;;;;;;;15.52;7.03;;;;;;;32.86;52.90;100410.41;5042075;28;70400;-36
2022/10/30 09:34:50;;;;;;;20.55;7.13;;;;;;;32.88;53.02;100419.16;5046214;28;66289;-36
2022/10/30 09:37:26;;;;;;;18.38;8.30;;;;;;;32.90;53.23;100426.00;5029749;28;69468;-34
2022/10/30 09:40:00;;;;;;;21.23;8.02;;;;;;;32.92;53.03;100421.13;5040147;28;65626;-37
2022/10/30 09:42:41;;;;;;;16.08;7.32;;;;;;;32.93;53.44;100433.66;5047218;28;69928;-37
2022/10/30 09:45:52;;;;;;;22.92;7.78;;;;;;;32.52;53.73;100376.94;5058600;28;43476;-37
2022/10/30 09:48:36;;;;;;;21.13;8.00;;;;;;;32.95;53.41;100438.81;5054699;28;70489;-34
2022/10/30 09:51:18;;;;;;;38.08;16.73;;;;;;;32.89;56.43;100442.53;5052033;28;66234;-38
2022/10/30 09:53:56;;;;;;;20.60;10.13;;;;;;;32.96;54.96;100448.63;5054563;28;70181;-37
2022/10/30 09:56:47;;;;;;;13.77;8.65;;;;;;;32.66;55.37;100410.88;5053635;28;66083;-36
2022/10/30 09:59:18;;;;;;;21.45;9.90;;;;;;;33.01;54.77;100450.63;5034842;28;70462;-36
2022/10/30 10:02:03;;;;;;;24.63;9.95;;;;;;;33.00;54.35;100460.69;5023505;28;67056;-36
2022/10/30 10:04:46;;;;;;;29.10;11.38;;;;;;;32.55;55.13;100390.03;5041692;28;70238;-36
2022/10/30 10:07:41;;;;;;;22.17;12.30;;;;;;;32.96;54.72;100467.66;5039497;28;67041;-38
2022/10/30 10:10:44;;;;;;;23.63;12.30;;;;;;;32.93;54.97;100466.25;5036616;28;69291;-37
2022/10/30 10:13:26;;;;;;;23.63;13.30;;;;;;;32.98;54.66;100461.97;5038969;28;65399;-37
2022/10/30 10:16:30;;;;;;;21.45;13.40;;;;;;;32.84;55.51;100473.13;5040661;28;70915;-37
2022/10/30 10:19:34;;;;;;;23.35;14.35;;;;;;;32.93;55.15;100477.13;5025778;28;65953;-37
2022/10/30 10:22:46;;;;;;;26.27;14.20;;;;;;;32.86;55.51;100481.03;5037807;28;72664;-37
2022/10/30 10:25:19;;;;;;;23.07;13.37;;;;;;;32.55;54.98;100415.28;5037144;28;66572;-36
2022/10/30 10:28:02;;;;;;;25.90;13.00;;;;;;;32.93;55.39;100487.97;5049168;28;70517;-37
2022/10/30 10:30:56;;;;;;;22.35;13.13;;;;;;;32.86;55.59;100498.16;5060700;28;66602;-37
2022/10/30 10:33:32;;;;;;;20.33;13.02;;;;;;;32.96;55.14;100491.25;5059753;28;70407;-37
2022/10/30 10:37:04;;;;;;;21.83;12.75;;;;;;;32.54;56.05;100445.38;5000313;28;66616;-37
2022/10/30 10:40:31;;;;;;;26.80;13.13;;;;;;;32.83;56.87;100506.81;5040558;28;69362;-37
2022/10/30 10:43:29;;;;;;;21.48;12.68;;;;;;;32.70;57.26;100512.50;5046839;28;66609;-37
2022/10/30 10:46:26;;;;;;;19.85;13.02;;;;;;;32.41;58.91;100515.16;5037386;28;69956;-37
2022/10/30 10:49:05;;;;;;;21.30;13.30;;;;;;;32.24;60.33;100523.22;5053012;28;66340;-37
2022/10/30 10:51:46;;;;;;;23.80;12.93;;;;;;;31.80;61.01;100452.22;5059397;28;69289;-38
2022/10/30 10:54:30;;;;;;;19.17;12.20;;;;;;;31.69;61.02;100465.78;5048799;28;65588;-38
2022/10/30 10:57:05;;;;;;;19.60;13.70;;;;;;;32.09;61.48;100525.59;5048056;28;69236;-37
2022/10/30 10:59:45;;;;;;;24.60;13.20;;;;;;;31.86;61.80;100493.84;5044608;28;66340;-38
2022/10/30 11:02:35;;;;;;;20.33;11.60;;;;;;;31.95;62.46;100541.28;5040951;28;69957;-37
2022/10/30 11:05:37;;;;;;;13.52;12.20;;;;;;;31.92;62.41;100535.50;5041352;28;66354;-40
2022/10/30 11:08:24;;;;;;;17.10;11.85;;;;;;;31.98;62.25;100543.53;5033431;28;70464;-36
2022/10/30 11:10:59;;;;;;;18.00;12.02;;;;;;;31.98;62.67;100546.25;5044492;28;66138;-36
2022/10/30 11:13:40;;;;;;;21.25;12.98;;;;;;;31.99;62.98;100552.50;5048833;28;68189;-36
2022/10/30 11:16:35;;;;;;;21.92;13.23;;;;;;;31.91;62.91;100559.09;5041905;28;66606;-36
2022/10/30 11:19:08;;;;;;;19.73;13.80;;;;;;;32.01;62.81;100562.06;5044163;28;69648;-35
2022/10/30 11:21:45;;;;;;;19.15;12.05;;;;;;;31.99;62.86;100577.75;5049869;28;65835;-37
2022/10/30 11:24:29;;;;;;;19.58;13.70;;;;;;;31.96;62.95;100575.50;5046830;28;70803;-37
2022/10/30 11:27:38;;;;;;;19.70;11.75;;;;;;;31.82;63.60;100574.06;5045400;28;66625;-37
2022/10/30 11:30:21;;;;;;;20.38;13.25;;;;;;;31.52;63.19;100515.28;5043789;28;70428;-36
2022/10/30 11:32:52;;;;;;;16.88;11.05;;;;;;;31.94;63.50;100583.03;5040217;28;66005;-36
2022/10/30 11:35:26;;;;;;;16.17;12.00;;;;;;;31.92;63.57;100585.16;5035699;28;69755;-36
2022/10/30 11:38:18;;;;;;;21.20;13.40;;;;;;;31.89;63.55;100596.44;5053054;28;65224;-35
2022/10/30 11:40:51;;;;;;;14.68;12.93;;;;;;;31.83;63.50;100581.94;5032826;28;69807;-35
2022/10/30 11:43:28;;;;;;;15.60;11.70;;;;;;;31.87;63.69;100581.47;5039315;28;66034;-38
2022/10/30 11:45:59;;;;;;;16.88;12.35;;;;;;;31.94;63.65;100598.50;5042483;28;70072;-38
2022/10/30 11:48:36;;;;;;;20.67;13.85;;;;;;;31.87;63.78;100597.75;5045401;28;66143;-37
2022/10/30 11:51:07;;;;;;;23.35;13.10;;;;;;;31.98;64.05;100610.53;5044384;28;69124;-37
2022/10/30 11:54:11;;;;;;;21.25;13.73;;;;;;;31.96;64.11;100613.47;5055817;28;66564;-38
2022/10/30 11:56:48;;;;;;;22.98;12.80;;;;;;;31.79;64.46;100590.78;5019777;28;70712;-37
2022/10/30 11:59:23;;;;;;;13.95;12.38;;;;;;;31.95;63.68;100621.84;5048699;28;66780;-37
2022/10/30 12:02:19;;;;;;;18.08;13.25;;;;;;;31.87;64.09;100622.97;5042013;28;70226;-37
2022/10/30 12:04:51;;;;;;;18.90;12.57;;;;;;;31.93;64.14;100627.53;5036723;28;66307;-37
2022/10/30 12:07:29;;;;;;;20.73;13.20;;;;;;;31.95;64.16;100630.81;5045570;28;69473;-35
2022/10/30 12:10:01;;;;;;;20.67;13.27;;;;;;;31.95;64.15;100627.25;5044861;28;66291;-37
2022/10/30 12:12:40;;;;;;;16.13;12.80;;;;;;;31.91;64.50;100635.06;5040380;28;68743;-36
2022/10/30 12:15:15;;;;;;;22.95;14.05;;;;;;;31.87;64.81;100641.13;5045149;28;66126;-37
2022/10/30 12:18:24;;;;;;;22.05;14.32;;;;;;;31.70;65.44;100636.38;5046645;28;69624;-37
2022/10/30 12:21:03;;;;;;;20.77;13.45;;;;;;;31.86;65.27;100647.63;5037095;28;67260;-37
2022/10/30 12:23:34;;;;;;;19.55;13.50;;;;;;;31.82;65.59;100650.00;5045524;28;69744;-37
2022/10/30 12:26:11;;;;;;;27.35;12.95;;;;;;;31.40;65.79;100587.63;5033222;28;66515;-37
2022/10/30 12:29:02;;;;;;;18.15;13.32;;;;;;;31.81;66.45;100651.03;5040143;28;70418;-37
2022/10/30 12:31:47;;;;;;;22.75;13.50;;;;;;;31.56;67.34;100608.63;5041646;28;66702;-37
2022/10/30 12:37:51;;;;;;;26.83;13.55;;;;;;;31.84;70.03;100661.41;5046646;28;64776;-38
2022/10/30 12:40:36;;;;;;;18.60;12.00;;;;;;;31.73;70.42;100646.78;5042221;28;70283;-38
2022/10/30 12:43:15;;;;;;;27.50;13.20;;;;;;;31.91;70.89;100678.47;5036956;28;66241;-37
2022/10/30 12:45:50;;;;;;;17.52;11.85;;;;;;;31.91;70.59;100692.03;5041264;28;70443;-37
2022/10/30 12:48:43;;;;;;;19.92;12.77;;;;;;;31.84;70.95;100696.69;5040811;28;66227;-37